• Join FlightAware (Why Join?)
  • Login
  • US Flag 
09:21AM EDT


 

Airport Tracker/Info


-or-


 

Live Flight TrackerFlight Track Log ✈ TAM3621 ✈ 14-May-2013 ✈ SBBR / BSB - SBKP / VCP

Flight Track Log - Related Links

Times and Time Zones

All times are in EDT time to prevent confusion due to time zone crossing. See the TAM3621 flight status page for this flight to view local times or setup timezone preferences in your user account.

Time Position Orientation Groundspeed Altitude Reporting Facility
EDT Latitude Longitude Course Direction KTS MPH feet Rate Location/Type
04:01PM -15.8600 -47.8730 86° East 155 178 5,100  Level FlightAware
04:02PM -15.8590 -47.8430 88° East 192 221 5,600 1,080 Climbing FlightAware
04:02PM -15.8570 -47.8160 86° East 238 274 6,100 1,320 Climbing FlightAware
04:03PM -15.8550 -47.7860 86° East 264 304 6,700 1,980 Climbing FlightAware
04:03PM -15.8610 -47.7610 104° East 283 326 7,600 2,760 Climbing FlightAware
04:03PM -15.8710 -47.7500 133° Southeast 287 330 8,100 2,700 Climbing FlightAware
04:03PM -15.8790 -47.7450 149° Southeast 291 335 8,500 2,700 Climbing FlightAware
04:04PM -15.8940 -47.7410 166° South 294 338 9,000 3,240 Climbing FlightAware
04:04PM -15.9280 -47.7540 200° South 298 343 10,400 2,160 Climbing FlightAware
04:05PM -15.9810 -47.7870 211° Southwest 343 395 11,400 1,920 Climbing FlightAware
04:05PM -16.0370 -47.8230 212° Southwest 355 409 13,200 2,520 Climbing FlightAware
04:06PM -16.1060 -47.8490 200° South 362 417 15,000 2,460 Climbing FlightAware
04:07PM -16.1700 -47.8560 186° South 363 418 16,500 1,920 Climbing FlightAware
04:07PM -16.2500 -47.8650 186° South 379 436 17,800 1,740 Climbing FlightAware
04:08PM -16.3200 -47.8740 187° South 386 444 19,000 1,800 Climbing FlightAware
04:09PM -16.4010 -47.8840 187° South 393 452 20,400 1,800 Climbing FlightAware
04:10PM -16.4730 -47.8930 187° South 396 456 21,600 1,620 Climbing FlightAware
04:10PM -16.5470 -47.9020 187° South 404 465 22,600 1,260 Climbing FlightAware
04:11PM -16.6190 -47.9110 187° South 414 476 23,300 1,260 Climbing FlightAware
04:12PM -16.7100 -47.9220 187° South 422 486 24,400 1,500 Climbing FlightAware
04:12PM -16.7770 -47.9290 186° South 425 489 25,300 660 Climbing FlightAware
04:13PM -16.8540 -47.9320 182° South 425 489 25,300  Level FlightAware
04:14PM -16.9210 -47.9350 182° South 425 489 25,300  Level FlightAware
04:14PM -17.0040 -47.9380 182° South 425 489 25,300  Level FlightAware
04:15PM -17.0710 -47.9400 182° South 425 489 25,300  Level FlightAware
04:16PM -17.1380 -47.9430 182° South 425 489 25,300 900 Level FlightAware
04:18PM -17.2655 -47.9261 173° South  Level Estimated
04:19PM -17.3397 -47.9162 173° South  Level Estimated
04:20PM -17.4140 -47.9063 173° South  Level Estimated
04:21PM -17.4882 -47.8964 173° South  Level Estimated
04:22PM -17.5625 -47.8865 173° South  Level Estimated
04:23PM -17.6367 -47.8766 173° South  Level Estimated
04:24PM -17.7110 -47.8667 173° South  Level Estimated
04:25PM -17.7830 -47.8570 173° South  Level Estimated
04:26PM -17.8550 -47.8474 173° South  Level Estimated
04:27PM -17.9270 -47.8377 173° South  Level Estimated
04:28PM -17.9990 -47.8281 173° South  Level Estimated
04:28PM -18.7220 -47.6560 173° South 430 495 38,000  Level FlightAware
04:29PM -18.0710 -47.8184 173° South  Level Estimated
04:29PM -18.7890 -47.6460 172° South 430 495 38,000  Level FlightAware
04:30PM -18.9020 -47.6300 172° South 431 496 38,000  Level FlightAware
04:30PM -18.9820 -47.6190 173° South 431 496 38,000  Level FlightAware
04:31PM -19.0710 -47.6060 172° South 432 497 38,000  Level FlightAware
04:32PM -19.1490 -47.5950 172° South 432 497 38,000  Level FlightAware
04:33PM -19.2380 -47.5820 172° South 431 496 38,000  Level FlightAware
04:33PM -19.3290 -47.5690 172° South 431 496 38,000  Level FlightAware
04:34PM -19.4050 -47.5580 172° South 431 496 38,000  Level FlightAware
04:35PM -19.4860 -47.5460 172° South 430 495 38,000  Level FlightAware
04:35PM -19.5760 -47.5330 172° South 430 495 38,000  Level FlightAware
04:36PM -19.6530 -47.5210 172° South 432 497 38,000  Level FlightAware
04:37PM -19.7450 -47.5140 176° South 427 491 38,000  Level FlightAware
04:38PM -19.8230 -47.5210 185° South 420 483 38,000  Level FlightAware
04:38PM -19.9000 -47.5350 190° South 419 482 38,000  Level FlightAware
04:39PM -19.9860 -47.5520 191° South 420 483 38,000  Level FlightAware
04:40PM -20.0520 -47.5640 190° South 421 484 38,000  Level FlightAware
04:41PM -20.1660 -47.5860 190° South 421 484 38,000  Level FlightAware
04:42PM -20.2830 -47.6090 190° South 421 484 38,000  Level FlightAware
04:42PM -20.3820 -47.6280 190° South 420 483 38,000  Level FlightAware
04:44PM -20.5160 -47.6540 190° South 418 481 38,000  Level FlightAware
04:44PM -20.6030 -47.6710 190° South 418 481 38,000  Level FlightAware
04:45PM -20.6780 -47.6850 190° South 417 480 38,000  Level FlightAware
04:46PM -20.7550 -47.7000 190° South 415 478 38,000  Level FlightAware
04:46PM -20.8360 -47.7160 190° South 414 476 38,000  Level FlightAware
04:47PM -20.9240 -47.7330 190° South 413 475 38,000  Level FlightAware
04:48PM -20.9970 -47.7470 190° South 413 475 38,000  Level FlightAware
04:48PM -21.0740 -47.7580 188° South 420 483 38,000 -360 Level FlightAware
04:49PM -21.1650 -47.7560 179° South 426 490 37,500 -1,140 Descending FlightAware
04:50PM -21.2430 -47.7410 170° South 436 502 36,400 -1,800 Descending FlightAware
04:51PM -21.3290 -47.7110 162° South 443 510 35,000 -2,160 Descending FlightAware
04:51PM -21.4080 -47.6790 159° South 458 527 33,400 -2,340 Descending FlightAware
04:52PM -21.4860 -47.6480 160° South 449 517 31,900 -2,940 Descending FlightAware
04:53PM -21.5660 -47.6170 160° South 456 525 29,500 -3,000 Descending FlightAware
04:53PM -21.6550 -47.5820 160° South 441 507 27,700 -2,280 Descending FlightAware
04:54PM -21.7300 -47.5530 160° South 426 490 26,300 -2,160 Descending FlightAware
04:55PM -21.8120 -47.5210 160° South 410 472 24,700 -2,220 Descending FlightAware
04:55PM -21.8820 -47.4930 160° South 398 458 23,200 -2,880 Descending FlightAware
04:56PM -21.9630 -47.4620 160° South 413 475 20,700 -2,880 Descending FlightAware
04:57PM -22.0290 -47.4350 159° South 401 461 19,200 -2,160 Descending FlightAware
04:58PM -22.1110 -47.4050 161° South 380 437 17,700 -1,380 Descending FlightAware
04:58PM -22.1720 -47.3990 175° South 17,100 -1,020 Descending FlightAware
04:59PM -22.2450 -47.3940 176° South 352 405 16,400 -1,020 Descending FlightAware
05:00PM -22.3180 -47.3880 176° South 349 402 15,700 -600 Descending FlightAware
05:00PM -22.3760 -47.3840 176° South 349 402 15,600 -960 Descending FlightAware
05:01PM -22.4490 -47.3790 176° South 14,400 -1,200 Descending FlightAware
05:03PM -22.5870 -47.3690 176° South 337 388 12,900 -900 Descending FlightAware
05:03PM -22.6590 -47.3630 176° South 333 383 12,500 -960 Descending FlightAware
05:04PM -22.7440 -47.3580 177° South 333 383 11,300 -1,020 Descending FlightAware
05:06PM -22.8920 -47.2910 157° South 311 358 9,800 -720 Descending FlightAware
05:07PM -22.9810 -47.2240 145° Southeast 303 349 9,200 -960 Descending FlightAware
05:09PM -23.0690 -47.1570 145° Southeast 294 338 7,400 -1,200 Descending FlightAware
05:11PM -23.0082 -47.1347 19° North  Level Estimated
05:11PM -23.1360 -47.0250 19° North 230 265 4,900  Level FlightAware
05:12PM -23.0800 -47.0320 353° North 175 201 4,000 -780 Descending FlightAware
05:13PM -23.0540 -47.0690 307° West 143 165 3,200 -780 Descending FlightAware
05:13PM -23.0510 -47.0740 303° West 142 163 3,100 -480 Descending FlightAware
05:14PM -23.0320 -47.1010 307° West 141 162 2,800 -480 Descending FlightAware
05:15PM -23.0210 -47.1160 309° West 141 162 2,500 -600 Descending FlightAware
05:17PM -23.0082 -47.1347 307° West  Level Estimated
05:18PM -23.0082 -47.1347 335° Northwest  Level Estimated
05:19PM -23.0082 -47.1347 335° Northwest  Level Estimated
05:20PM -23.0082 -47.1347 335° Northwest  Level Estimated
05:21PM -23.0082 -47.1347 335° Northwest  Level Estimated
05:22PM -23.0082 -47.1347 335° Northwest  Level Estimated
05:23PM -23.0082 -47.1347 335° Northwest  Level Estimated
05:24PM -23.0082 -47.1347 335° Northwest  Level Estimated
05:25PM -23.0082 -47.1347 335° Northwest  Level Estimated
05:26PM -23.0082 -47.1347 335° Northwest  Level Estimated
05:27PM -23.0082 -47.1347 335° Northwest  Level Estimated
05:28PM -23.0082 -47.1347 335° Northwest  Level Estimated
05:29PM -23.0082 -47.1347 335° Northwest  Level Estimated
05:30PM -23.0082 -47.1347 335° Northwest  Level Estimated
05:31PM -23.0082 -47.1347 335° Northwest  Level Estimated
05:32PM -23.0082 -47.1347 335° Northwest  Level Estimated
05:33PM -23.0082 -47.1347 335° Northwest  Level Estimated
05:34PM -23.0082 -47.1347 335° Northwest  Level Estimated
05:35PM -23.0082 -47.1347 335° Northwest  Level Estimated
05:36PM -23.0082 -47.1347 335° Northwest  Level Estimated
05:37PM -23.0082 -47.1347 335° Northwest  Level Estimated
05:38PM -23.0082 -47.1347 335° Northwest  Level Estimated
05:39PM -23.0082 -47.1347 335° Northwest  Level Estimated
05:40PM -23.0082 -47.1347 335° Northwest  Level Estimated
05:41PM -23.0082 -47.1347 335° Northwest  Level Estimated
05:42PM -23.0082 -47.1347 335° Northwest  Level Estimated
05:43PM -23.0082 -47.1347 335° Northwest  Level Estimated
05:44PM -23.0082 -47.1347 335° Northwest  Level Estimated
05:45PM -23.0082 -47.1347 335° Northwest  Level Estimated
05:46PM -23.0082 -47.1347 335° Northwest  Level Estimated
05:47PM -23.0082 -47.1347 335° Northwest  Level Estimated
05:48PM -23.0082 -47.1347 335° Northwest  Level Estimated
05:49PM -23.0082 -47.1347 335° Northwest  Level Estimated
05:50PM -23.0082 -47.1347 335° Northwest  Level Estimated
05:51PM -23.0082 -47.1347 335° Northwest  Level Estimated
05:52PM -23.0082 -47.1347 335° Northwest  Level Estimated
05:53PM -23.0082 -47.1347 335° Northwest  Level Estimated
05:54PM -23.0082 -47.1347 335° Northwest  Level Estimated
05:55PM -23.0082 -47.1347 335° Northwest  Level Estimated